Time;durP1;ratioP1;P1;durP2;ratioP2;P2;SDS_P1;SDS_P2;PMS_P1;PMS_P2;Temp;Humidity;BMP_temperature;BMP_pressure;BME280_temperature;BME280_humidity;BME280_pressure;Samples;Min_cycle;Max_cycle;Signal;HPM_P1;HPM_P2
2022/11/26 00:02:46;;;;;;;6.20;4.97;;;;;;;8.91;100.00;100001.44;10292026;28;20522;-69
2022/11/26 00:07:59;;;;;;;9.45;5.20;;;;;;;8.89;100.00;99995.50;10293792;28;20781;-70
2022/11/26 00:13:00;;;;;;;9.13;5.10;;;;;;;8.94;100.00;99994.97;10293558;28;20521;-69
2022/11/26 00:18:01;;;;;;;8.98;5.40;;;;;;;8.87;100.00;99979.75;10292962;28;20162;-69
2022/11/26 00:23:03;;;;;;;12.18;5.57;;;;;;;8.83;100.00;99994.34;10292399;28;20582;-69
2022/11/26 00:28:23;;;;;;;8.68;5.45;;;;;;;8.83;100.00;99991.69;10292108;28;20031;-69
2022/11/26 00:33:26;;;;;;;9.55;5.55;;;;;;;8.78;100.00;100004.59;10292883;28;20046;-69
2022/11/26 00:38:28;;;;;;;11.38;5.72;;;;;;;8.73;100.00;99996.28;10292583;28;20039;-69
2022/11/26 00:43:29;;;;;;;12.13;6.22;;;;;;;8.66;100.00;99998.78;10290812;28;20043;-69
2022/11/26 00:48:30;;;;;;;9.68;5.70;;;;;;;8.71;100.00;99995.66;10292211;28;20101;-69
2022/11/26 00:53:31;;;;;;;10.27;5.97;;;;;;;8.64;100.00;99984.88;10291616;28;20046;-69
2022/11/26 00:58:31;;;;;;;13.43;7.20;;;;;;;8.36;100.00;99947.25;10291851;28;20141;-69
2022/11/26 01:03:32;;;;;;;12.75;7.03;;;;;;;8.59;100.00;99981.91;10291719;28;20035;-69
2022/11/26 01:08:34;;;;;;;13.80;7.47;;;;;;;8.31;100.00;99946.91;10289973;28;20039;-69
2022/11/26 01:13:35;;;;;;;17.05;7.78;;;;;;;8.09;100.00;99918.44;10291111;28;20042;-69
2022/11/26 01:18:36;;;;;;;16.20;8.63;;;;;;;8.50;100.00;99984.72;10291892;28;20050;-69
2022/11/26 01:23:37;;;;;;;12.32;8.00;;;;;;;8.38;100.00;99974.44;10295323;28;20509;-70
2022/11/26 01:28:37;;;;;;;13.32;7.80;;;;;;;8.48;100.00;99990.16;10299945;28;20058;-69
2022/11/26 01:33:38;;;;;;;12.05;7.22;;;;;;;7.96;100.00;99906.50;10299368;28;20043;-69
2022/11/26 01:38:39;;;;;;;17.75;7.93;;;;;;;8.34;100.00;99966.94;10298725;28;20047;-69
2022/11/26 01:43:42;;;;;;;16.95;7.93;;;;;;;8.45;100.00;99999.25;10299108;28;20034;-70
2022/11/26 01:48:43;;;;;;;14.77;7.90;;;;;;;8.03;100.00;99930.50;10298332;28;20086;-69
2022/11/26 01:53:53;;;;;;;13.55;7.43;;;;;;;8.35;100.00;99973.91;10298628;28;20049;-69
2022/11/26 01:59:17;;;;;;;16.30;7.78;;;;;;;8.23;100.00;99955.69;10298479;28;20050;-69
2022/11/26 02:04:28;;;;;;;12.52;7.20;;;;;;;8.47;100.00;99988.50;10297160;28;20058;-69
2022/11/26 02:09:30;;;;;;;19.42;6.80;;;;;;;8.48;100.00;99982.22;10298101;28;20047;-69
2022/11/26 02:14:35;;;;;;;12.23;6.88;;;;;;;8.44;100.00;99980.91;10297211;28;20039;-69
2022/11/26 02:20:00;;;;;;;13.23;5.60;;;;;;;8.57;100.00;100004.22;10296035;28;20042;-69
2022/11/26 02:25:18;;;;;;;16.02;6.90;;;;;;;8.13;100.00;99939.09;10297673;28;20045;-69
2022/11/26 02:30:19;;;;;;;11.48;5.50;;;;;;;8.50;100.00;100009.34;10297343;28;20182;-69
2022/11/26 02:35:34;;;;;;;12.55;6.07;;;;;;;8.50;100.00;100011.19;10296557;28;20174;-69
2022/11/26 02:40:35;;;;;;;10.35;5.60;;;;;;;8.57;100.00;100041.28;10297655;28;20047;-70
2022/11/26 02:45:39;;;;;;;12.10;5.60;;;;;;;8.50;100.00;100032.34;10296274;28;20059;-69
2022/11/26 02:50:53;;;;;;;12.10;5.00;;;;;;;8.42;100.00;100031.34;10297111;28;20490;-69
2022/11/26 02:56:05;;;;;;;9.38;5.32;;;;;;;7.89;100.00;99949.63;10296256;28;20062;-69
2022/11/26 03:01:12;;;;;;;9.48;5.07;;;;;;;8.45;100.00;100049.53;10295999;28;20034;-70
2022/11/26 03:06:15;;;;;;;10.77;4.93;;;;;;;8.45;100.00;100057.47;10295764;28;20066;-69
2022/11/26 03:11:16;;;;;;;12.48;5.43;;;;;;;8.43;100.00;100062.09;10295899;28;20124;-70
2022/11/26 03:16:16;;;;;;;13.05;5.63;;;;;;;8.31;100.00;100041.34;10294301;28;20533;-70
2022/11/26 03:21:17;;;;;;;18.90;5.63;;;;;;;7.72;100.00;99968.06;10294946;28;20034;-70
2022/11/26 03:26:18;;;;;;;13.48;6.18;;;;;;;8.37;100.00;100083.88;10319749;28;20105;-70
2022/11/26 03:31:19;;;;;;;11.93;5.63;;;;;;;8.21;100.00;100066.13;10293414;28;20050;-70
2022/11/26 03:36:21;;;;;;;11.52;5.80;;;;;;;8.01;100.00;100028.50;10294547;28;20043;-70
2022/11/26 03:41:22;;;;;;;14.35;5.75;;;;;;;8.07;100.00;100042.09;10294544;28;20043;-70
2022/11/26 03:46:23;;;;;;;12.65;5.90;;;;;;;8.33;100.00;100082.56;10292814;28;20058;-70
2022/11/26 03:51:24;;;;;;;16.73;5.75;;;;;;;8.30;100.00;100084.69;10294307;28;20035;-70
2022/11/26 03:56:25;;;;;;;10.27;5.57;;;;;;;8.23;100.00;100090.63;10293308;28;20047;-70
2022/11/26 04:01:25;;;;;;;12.45;6.13;;;;;;;8.01;100.00;100065.53;10294078;28;20039;-71
2022/11/26 04:06:26;;;;;;;9.43;5.82;;;;;;;7.74;100.00;100018.97;10292033;28;20126;-70
2022/11/26 04:11:27;;;;;;;16.85;6.43;;;;;;;8.20;100.00;100104.19;10293668;28;20126;-70
2022/11/26 04:16:28;;;;;;;12.23;6.65;;;;;;;8.11;100.00;100093.72;10293078;28;20501;-71
2022/11/26 04:21:29;;;;;;;9.40;5.70;;;;;;;7.83;100.00;100048.94;10291537;28;20050;-71
2022/11/26 04:26:30;;;;;;;12.18;6.53;;;;;;;8.23;100.00;100111.81;10293160;28;20045;-71
2022/11/26 04:31:30;;;;;;;15.85;6.47;;;;;;;8.00;100.00;100087.69;10292853;28;20125;-71
2022/11/26 04:36:31;;;;;;;11.25;6.35;;;;;;;8.17;100.00;100106.31;10293051;28;20043;-71
2022/11/26 04:41:32;;;;;;;14.35;6.93;;;;;;;8.21;100.00;100107.66;10291979;28;20106;-70
2022/11/26 04:46:33;;;;;;;14.27;6.65;;;;;;;8.40;100.00;100135.72;10291893;28;20145;-71
2022/11/26 04:51:33;;;;;;;12.30;5.88;;;;;;;7.90;100.00;100054.44;10291628;28;20044;-71
2022/11/26 04:56:34;;;;;;;13.48;5.88;;;;;;;8.36;100.00;100129.88;10291524;28;20507;-71
2022/11/26 05:01:35;;;;;;;10.95;6.95;;;;;;;8.07;100.00;100085.25;10291360;28;20114;-71
2022/11/26 05:06:36;;;;;;;13.48;6.28;;;;;;;8.39;100.00;100139.34;10292356;28;20042;-71
2022/11/26 05:11:36;;;;;;;15.63;6.43;;;;;;;8.33;100.00;100132.84;10292143;28;20526;-72
2022/11/26 05:16:37;;;;;;;8.52;5.10;;;;;;;7.87;100.00;100083.84;10291489;28;20043;-71
2022/11/26 05:21:40;;;;;;;15.13;5.90;;;;;;;7.91;100.00;100101.03;10290814;28;20057;-72
2022/11/26 05:26:41;;;;;;;9.63;4.95;;;;;;;8.23;100.00;100172.66;10292047;28;20050;-73
2022/11/26 05:31:42;;;;;;;12.73;4.65;;;;;;;7.86;100.00;100121.84;10291348;28;20050;-71
2022/11/26 05:36:43;;;;;;;11.85;6.57;;;;;;;8.05;100.00;100158.66;10290461;28;20053;-71
2022/11/26 05:41:43;;;;;;;14.63;7.05;;;;;;;8.00;100.00;100168.88;10290718;28;20047;-71
2022/11/26 05:46:44;;;;;;;13.73;6.53;;;;;;;7.94;100.00;100149.16;10290918;28;20063;-71
2022/11/26 05:51:45;;;;;;;19.92;7.40;;;;;;;7.87;100.00;100142.03;10291815;28;20050;-71
2022/11/26 05:56:46;;;;;;;13.68;5.70;;;;;;;8.00;100.00;100179.47;10289869;28;20049;-70
2022/11/26 06:01:46;;;;;;;23.02;5.78;;;;;;;8.04;100.00;100194.03;10290792;28;20043;-69
2022/11/26 06:06:47;;;;;;;14.23;6.50;;;;;;;7.14;100.00;100039.22;10290858;28;20525;-70
2022/11/26 06:11:49;;;;;;;14.88;6.65;;;;;;;8.00;100.00;100174.16;10285641;28;20085;-72
2022/11/26 06:16:50;;;;;;;18.55;6.95;;;;;;;7.96;100.00;100181.59;10297502;28;20097;-70
2022/11/26 06:21:51;;;;;;;13.82;6.88;;;;;;;7.94;100.00;100191.50;10308515;28;20047;-69
2022/11/26 06:26:52;;;;;;;16.48;7.22;;;;;;;7.97;100.00;100193.81;10300487;28;20403;-72
2022/11/26 06:31:53;;;;;;;18.65;8.23;;;;;;;7.88;100.00;100189.47;10312766;28;20461;-71
2022/11/26 06:36:53;;;;;;;19.70;8.77;;;;;;;7.84;100.00;100184.63;10313136;28;20055;-71
2022/11/26 06:41:54;;;;;;;22.90;8.77;;;;;;;7.62;100.00;100146.28;10295251;28;20070;-73
2022/11/26 06:46:55;;;;;;;19.52;7.78;;;;;;;7.89;100.00;100206.97;10295052;28;20118;-71
2022/11/26 06:51:56;;;;;;;19.30;7.63;;;;;;;7.90;100.00;100207.84;10326114;28;20565;-72
2022/11/26 06:56:56;;;;;;;16.95;8.18;;;;;;;7.90;100.00;100213.94;10331555;28;20046;-70
2022/11/26 07:01:57;;;;;;;14.60;7.13;;;;;;;7.84;100.00;100222.50;10330905;28;20042;-73
2022/11/26 07:06:58;;;;;;;15.15;7.35;;;;;;;7.63;100.00;100185.81;10293500;28;20042;-72
2022/11/26 07:11:59;;;;;;;19.75;7.50;;;;;;;7.91;100.00;100225.34;10323063;28;20172;-79
2022/11/26 07:16:59;;;;;;;15.60;7.38;;;;;;;7.89;100.00;100212.28;10332681;28;20038;-72
2022/11/26 07:22:00;;;;;;;20.30;8.15;;;;;;;7.70;100.00;100188.66;10329882;28;20088;-75
2022/11/26 07:27:01;;;;;;;17.30;7.63;;;;;;;8.07;100.00;100224.63;10301383;28;20070;-74
2022/11/26 07:32:02;;;;;;;21.35;7.63;;;;;;;8.13;100.00;100232.78;10293993;28;20533;-73
2022/11/26 07:37:03;;;;;;;19.05;7.18;;;;;;;7.74;100.00;100188.19;10305584;28;20047;-73
2022/11/26 07:42:04;;;;;;;18.90;6.85;;;;;;;8.04;100.00;100231.06;10294161;28;20058;-73
2022/11/26 07:47:05;;;;;;;15.60;6.70;;;;;;;7.98;100.00;100237.78;10293698;28;20055;-73
2022/11/26 07:52:06;;;;;;;15.63;7.07;;;;;;;7.91;100.00;100209.50;10293638;28;20057;-73
2022/11/26 07:57:07;;;;;;;15.55;8.00;;;;;;;8.00;100.00;100250.88;10294695;28;20039;-73
2022/11/26 08:02:13;;;;;;;36.63;22.77;;;;;;;8.04;100.00;100225.78;10293277;28;20043;-73
2022/11/26 08:07:14;;;;;;;31.88;16.80;;;;;;;7.70;100.00;100172.81;10293643;28;20042;-73
2022/11/26 08:12:14;;;;;;;19.55;10.07;;;;;;;7.71;100.00;100180.56;10292653;28;20407;-73
2022/11/26 08:17:15;;;;;;;27.80;12.98;;;;;;;7.49;100.00;100150.16;10292762;28;20105;-74
2022/11/26 08:22:16;;;;;;;28.00;13.82;;;;;;;7.43;100.00;100142.03;10293472;28;20069;-72
2022/11/26 08:27:17;;;;;;;19.27;7.85;;;;;;;8.00;100.00;100217.31;10292341;28;20047;-72
2022/11/26 08:32:18;;;;;;;21.48;8.80;;;;;;;7.49;100.00;100115.81;10302076;28;20034;-73
2022/11/26 08:37:19;;;;;;;15.80;7.20;;;;;;;7.86;100.00;100183.50;10292949;28;20196;-73
2022/11/26 08:42:19;;;;;;;24.63;8.75;;;;;;;8.04;100.00;100219.66;10292705;28;20061;-72
2022/11/26 08:47:20;;;;;;;23.00;10.40;;;;;;;8.13;100.00;100213.44;10292721;28;20061;-72
2022/11/26 08:52:21;;;;;;;18.40;8.30;;;;;;;8.04;100.00;100209.06;10292190;28;20067;-72
2022/11/26 08:57:22;;;;;;;21.23;9.98;;;;;;;7.85;100.00;100189.78;10291322;28;20046;-72
2022/11/26 09:02:23;;;;;;;14.98;8.10;;;;;;;7.72;100.00;100176.97;10297021;28;20042;-72
2022/11/26 09:07:24;;;;;;;21.35;8.52;;;;;;;7.94;100.00;100209.19;10327891;28;20516;-73
2022/11/26 09:12:24;;;;;;;15.38;7.75;;;;;;;7.42;100.00;100127.13;10291995;28;20404;-72
2022/11/26 09:17:25;;;;;;;22.50;9.13;;;;;;;7.98;100.00;100226.38;10289529;28;20043;-70
2022/11/26 09:22:26;;;;;;;26.73;12.25;;;;;;;7.94;100.00;100203.88;10315139;28;20049;-70
2022/11/26 09:27:27;;;;;;;24.05;10.95;;;;;;;7.61;100.00;100156.03;10292255;28;20046;-72
2022/11/26 09:32:27;;;;;;;17.70;9.95;;;;;;;7.89;100.00;100199.03;10279181;28;20050;-71
2022/11/26 09:37:30;;;;;;;18.67;11.10;;;;;;;7.57;100.00;100138.84;10290527;28;20054;-69
2022/11/26 09:42:50;;;;;;;26.63;12.02;;;;;;;8.04;100.00;100220.47;10300969;28;20413;-73
2022/11/26 09:47:52;;;;;;;22.80;13.02;;;;;;;7.94;100.00;100214.47;10298148;28;20575;-72
2022/11/26 09:52:58;;;;;;;25.42;11.15;;;;;;;7.86;100.00;100217.03;10297246;28;20522;-72
2022/11/26 09:58:17;;;;;;;24.73;9.20;;;;;;;7.87;100.00;100224.84;10314598;28;20454;-73
2022/11/26 10:03:17;;;;;;;23.23;9.05;;;;;;;7.86;100.00;100222.34;10299531;28;20053;-73
2022/11/26 10:08:29;;;;;;;34.97;20.63;;;;;;;7.90;100.00;100229.00;10297616;28;20392;-73
2022/11/26 10:14:06;;;;;;;52.08;27.80;;;;;;;7.43;100.00;100144.66;10297510;28;20039;-73
2022/11/26 10:19:36;;;;;;;32.67;16.77;;;;;;;7.89;100.00;100237.91;10298204;28;20101;-73
2022/11/26 10:24:40;;;;;;;34.25;17.75;;;;;;;7.89;100.00;100237.91;10297326;28;20042;-73
2022/11/26 10:29:43;;;;;;;21.20;8.60;;;;;;;7.69;100.00;100198.41;10297688;28;20042;-73
2022/11/26 10:34:55;;;;;;;26.08;8.00;;;;;;;7.94;100.00;100231.16;10296684;28;20034;-73
2022/11/26 10:40:18;;;;;;;35.33;8.13;;;;;;;7.93;100.00;100226.03;10296449;28;20415;-72
2022/11/26 10:45:25;;;;;;;20.57;7.33;;;;;;;7.92;100.00;100221.72;10296566;28;20034;-73
2022/11/26 10:50:26;;;;;;;19.42;8.38;;;;;;;7.97;100.00;100237.97;10297221;28;20063;-72
2022/11/26 10:55:31;;;;;;;20.27;8.73;;;;;;;7.96;100.00;100238.97;10295400;28;20038;-72
2022/11/26 11:00:44;;;;;;;21.70;8.93;;;;;;;7.91;100.00;100241.22;10296694;28;20101;-72
2022/11/26 11:05:46;;;;;;;22.55;8.68;;;;;;;7.67;100.00;100197.72;10295489;28;20049;-72
2022/11/26 11:10:54;;;;;;;16.10;9.27;;;;;;;7.96;100.00;100244.25;10295638;28;20483;-72
2022/11/26 11:16:01;;;;;;;26.27;14.68;;;;;;;7.87;100.00;100234.59;10295546;28;20046;-71
2022/11/26 11:21:03;;;;;;;12.75;6.75;;;;;;;8.08;100.00;100266.84;10296136;28;20090;-72
2022/11/26 11:26:12;;;;;;;23.35;12.10;;;;;;;7.73;100.00;100199.75;10294887;28;20063;-72
2022/11/26 11:31:19;;;;;;;18.38;10.52;;;;;;;7.82;100.00;100200.66;10294668;28;20046;-72
2022/11/26 11:36:26;;;;;;;18.75;7.05;;;;;;;8.26;100.00;100276.56;10294225;28;20059;-72
2022/11/26 11:41:35;;;;;;;15.10;6.43;;;;;;;8.07;100.00;100245.81;10293210;28;20442;-72
2022/11/26 11:47:07;;;;;;;15.93;6.28;;;;;;;8.27;100.00;100275.56;10294928;28;20070;-72
2022/11/26 11:52:54;;;;;;;14.60;5.70;;;;;;;8.24;100.00;100269.59;10278657;28;20050;-73
2022/11/26 11:58:06;;;;;;;12.40;5.10;;;;;;;8.25;100.00;100281.00;10289030;28;20054;-72
2022/11/26 12:03:42;;;;;;;13.20;5.28;;;;;;;8.26;100.00;100287.97;10325320;28;20041;-72
2022/11/26 12:09:18;;;;;;;14.55;5.57;;;;;;;8.26;100.00;100303.84;10294084;28;20039;-72
2022/11/26 12:14:34;;;;;;;14.38;5.20;;;;;;;8.12;100.00;100307.84;10272307;28;20089;-73
2022/11/26 12:19:46;;;;;;;18.23;4.82;;;;;;;8.10;100.00;100309.81;10286056;28;20051;-73
2022/11/26 12:24:53;;;;;;;12.00;4.95;;;;;;;8.15;100.00;100302.25;10288989;28;20487;-73
2022/11/26 12:30:04;;;;;;;12.68;5.45;;;;;;;8.07;100.00;100294.25;10283281;28;20039;-73
2022/11/26 12:35:14;;;;;;;15.20;6.13;;;;;;;8.12;100.00;100299.09;10277478;28;20096;-75
2022/11/26 12:40:43;;;;;;;17.42;6.43;;;;;;;8.23;100.00;100320.03;10288045;28;20039;-73
2022/11/26 12:46:02;;;;;;;16.70;5.97;;;;;;;8.14;100.00;100311.19;10289016;28;20035;-74
2022/11/26 12:51:15;;;;;;;14.25;5.70;;;;;;;7.72;100.00;100227.19;10297455;28;20046;-73
2022/11/26 12:56:36;;;;;;;14.57;5.65;;;;;;;8.01;100.00;100284.28;10294061;28;20101;-73
2022/11/26 13:01:37;;;;;;;14.18;6.55;;;;;;;8.16;100.00;100325.09;10291386;28;20070;-73
2022/11/26 13:06:47;;;;;;;13.32;5.22;;;;;;;8.17;100.00;100325.94;10289175;28;20085;-74
2022/11/26 13:12:17;;;;;;;14.38;4.97;;;;;;;8.14;100.00;100315.66;10287744;28;20078;-73
2022/11/26 13:17:21;;;;;;;8.10;4.10;;;;;;;7.45;100.00;100214.91;10288802;28;20519;-73
2022/11/26 13:22:39;;;;;;;9.75;3.95;;;;;;;7.27;100.00;100182.34;10287977;28;20054;-72
2022/11/26 13:27:58;;;;;;;19.58;4.50;;;;;;;8.11;100.00;100332.66;10284616;28;20122;-74
2022/11/26 13:33:23;;;;;;;14.02;4.70;;;;;;;8.08;100.00;100332.16;10299207;28;20494;-73
2022/11/26 13:39:06;;;;;;;13.32;4.43;;;;;;;8.01;100.00;100331.91;10291028;28;20065;-73
2022/11/26 13:44:13;;;;;;;10.57;4.57;;;;;;;7.51;100.00;100256.59;10241412;28;20495;-73
2022/11/26 13:49:38;;;;;;;10.95;4.63;;;;;;;7.96;100.00;100331.53;10291315;28;20141;-73
2022/11/26 13:54:45;;;;;;;13.10;4.93;;;;;;;7.93;100.00;100330.03;10290375;28;20515;-73
2022/11/26 13:59:52;;;;;;;10.40;3.80;;;;;;;7.74;100.00;100299.25;10290050;28;20094;-72
2022/11/26 14:04:53;;;;;;;13.23;3.83;;;;;;;7.67;100.00;100286.81;10290783;28;20129;-72
2022/11/26 14:09:56;;;;;;;9.15;4.10;;;;;;;7.78;100.00;100299.81;10290024;28;20137;-73
2022/11/26 14:14:57;;;;;;;13.43;6.32;;;;;;;7.80;100.00;100300.47;10290192;28;20050;-73
2022/11/26 14:19:58;;;;;;;16.05;7.43;;;;;;;7.99;100.00;100334.72;10289787;28;20050;-72
2022/11/26 14:25:11;;;;;;;58.08;26.70;;;;;;;7.31;100.00;100218.88;10290376;28;20046;-73
2022/11/26 14:30:15;;;;;;;17.58;11.10;;;;;;;7.96;100.00;100334.19;10292664;28;20423;-73
2022/11/26 14:35:31;;;;;;;11.15;5.53;;;;;;;7.59;100.00;100271.66;10296525;28;20046;-74
2022/11/26 14:40:37;;;;;;;13.32;5.90;;;;;;;7.84;100.00;100303.63;10297715;28;20050;-73
2022/11/26 14:45:38;;;;;;;13.35;7.60;;;;;;;7.82;100.00;100309.09;10297361;28;20042;-73
2022/11/26 14:50:39;;;;;;;8.20;3.75;;;;;;;7.73;100.00;100291.47;10294942;28;20055;-73
2022/11/26 14:55:43;;;;;;;6.72;3.53;;;;;;;7.87;100.00;100335.09;10291804;28;20403;-76
2022/11/26 15:00:59;;;;;;;8.02;4.55;;;;;;;7.92;100.00;100338.09;10334149;28;20100;-78
2022/11/26 15:06:00;;;;;;;11.20;4.30;;;;;;;7.93;100.00;100348.53;10284834;28;20447;-74
2022/11/26 15:11:05;;;;;;;9.50;3.65;;;;;;;7.93;100.00;100348.53;10285229;28;20046;-72
2022/11/26 15:16:48;;;;;;;8.02;4.07;;;;;;;7.72;100.00;100298.59;10283334;28;20447;-74
2022/11/26 15:21:49;;;;;;;9.63;4.45;;;;;;;7.70;100.00;100320.88;10241914;28;20066;-74
2022/11/26 15:26:50;;;;;;;6.93;4.20;;;;;;;7.90;100.00;100367.34;10281410;28;20046;-74
2022/11/26 15:31:51;;;;;;;9.93;4.25;;;;;;;7.50;100.00;100302.47;10282768;28;20059;-73
2022/11/26 15:36:51;;;;;;;8.45;3.97;;;;;;;7.65;100.00;100342.47;10272700;28;20097;-72
2022/11/26 15:41:56;;;;;;;7.63;4.47;;;;;;;7.26;100.00;100278.44;10284462;28;20053;-73
2022/11/26 15:46:58;;;;;;;10.63;4.30;;;;;;;7.19;100.00;100256.25;10302781;28;20404;-73
2022/11/26 15:52:24;;;;;;;8.20;4.15;;;;;;;7.43;100.00;100300.59;10301284;28;20042;-73
2022/11/26 15:57:30;;;;;;;11.77;4.70;;;;;;;7.81;100.00;100362.13;10294450;28;20074;-73
2022/11/26 16:02:31;;;;;;;16.77;4.35;;;;;;;7.54;100.00;100318.91;10315080;28;20490;-73
2022/11/26 16:07:32;;;;;;;10.20;3.90;;;;;;;7.81;100.00;100364.75;10309073;28;20051;-73
2022/11/26 16:12:35;;;;;;;6.95;3.90;;;;;;;7.76;100.00;100358.13;10313525;28;20042;-74
2022/11/26 16:17:36;;;;;;;9.50;4.38;;;;;;;7.84;100.00;100361.81;10282897;28;20039;-72
2022/11/26 16:22:37;;;;;;;7.65;3.97;;;;;;;7.40;100.00;100269.19;10288886;28;20054;-73
2022/11/26 16:27:37;;;;;;;9.85;3.92;;;;;;;7.63;100.00;100310.06;10282611;28;20051;-74
2022/11/26 16:32:38;;;;;;;9.57;3.67;;;;;;;7.38;100.00;100266.66;10285190;28;20050;-73
2022/11/26 16:37:43;;;;;;;9.55;3.53;;;;;;;7.82;100.00;100340.00;10272111;28;20134;-73
2022/11/26 16:42:45;;;;;;;7.68;3.72;;;;;;;7.63;100.00;100307.44;10287512;28;20050;-73
2022/11/26 16:47:50;;;;;;;8.80;3.50;;;;;;;7.85;100.00;100340.53;10283707;28;20047;-74
2022/11/26 16:52:51;;;;;;;;;;;;;;;8.07;100.00;100351.63;10292834;28;20518;-74
2022/11/26 16:57:58;;;;;;;9.77;4.45;;;;;;;7.62;100.00;100304.91;10286426;28;20096;-73
2022/11/26 17:02:59;;;;;;;10.07;5.57;;;;;;;7.90;100.00;100353.31;10285228;28;20517;-74
2022/11/26 17:08:01;;;;;;;9.85;5.22;;;;;;;7.46;100.00;100289.72;10286697;28;20057;-73
2022/11/26 17:13:02;;;;;;;11.05;4.72;;;;;;;7.47;100.00;100283.44;10289059;28;20289;-73
2022/11/26 17:18:09;;;;;;;7.40;4.68;;;;;;;7.75;100.00;100327.38;10298981;28;20109;-73
2022/11/26 17:23:10;;;;;;;8.55;4.53;;;;;;;7.65;100.00;100307.25;10272224;28;20039;-73
2022/11/26 17:28:12;;;;;;;8.38;4.65;;;;;;;7.74;100.00;100325.69;10278413;28;20392;-73
2022/11/26 17:33:12;;;;;;;10.52;4.78;;;;;;;7.94;100.00;100347.56;10289980;28;20377;-72
2022/11/26 17:38:16;;;;;;;7.13;4.70;;;;;;;7.74;100.00;100307.19;10297581;28;20046;-73
2022/11/26 17:43:17;;;;;;;8.25;4.93;;;;;;;7.66;100.00;100301.84;10280456;28;20043;-73
2022/11/26 17:48:17;;;;;;;10.52;5.32;;;;;;;7.95;100.00;100333.34;10272488;28;20066;-73
2022/11/26 17:53:18;;;;;;;8.07;4.35;;;;;;;7.93;100.00;100331.84;10280885;28;20042;-74
2022/11/26 17:58:19;;;;;;;8.85;4.38;;;;;;;8.05;100.00;100348.28;10271244;28;20082;-73
2022/11/26 18:03:20;;;;;;;6.28;4.80;;;;;;;7.98;100.00;100333.03;10284734;28;20066;-73
2022/11/26 18:08:22;;;;;;;9.35;4.93;;;;;;;8.07;100.00;100347.16;10295077;28;20051;-74
2022/11/26 18:13:22;;;;;;;19.42;5.40;;;;;;;8.22;100.00;100366.81;10301385;28;20043;-73
2022/11/26 18:18:23;;;;;;;10.40;6.28;;;;;;;8.13;100.00;100338.63;10295566;28;20050;-73
2022/11/26 18:23:24;;;;;;;8.95;6.60;;;;;;;7.83;100.00;100276.34;10302319;28;20068;-74
2022/11/26 18:28:25;;;;;;;7.93;6.60;;;;;;;7.94;100.00;100291.19;10287491;28;20039;-73
2022/11/26 18:33:26;;;;;;;6.82;5.68;;;;;;;7.86;100.00;100276.06;10291978;28;20046;-73
2022/11/26 18:38:30;;;;;;;16.52;8.18;;;;;;;8.16;100.00;100330.38;10297908;28;20057;-74
2022/11/26 18:43:32;;;;;;;9.30;5.97;;;;;;;8.33;100.00;100379.00;10295572;28;20047;-73
2022/11/26 18:48:38;;;;;;;7.80;6.05;;;;;;;7.39;100.00;100230.50;10298434;28;20434;-73
2022/11/26 18:53:39;;;;;;;7.00;5.68;;;;;;;8.28;100.00;100385.72;10299562;28;20096;-73
2022/11/26 18:58:40;;;;;;;8.50;5.90;;;;;;;7.71;100.00;100294.25;10276696;28;20051;-72
2022/11/26 19:03:43;;;;;;;7.20;5.25;;;;;;;8.17;100.00;100398.22;10264665;28;20043;-74
2022/11/26 19:08:45;;;;;;;7.93;5.35;;;;;;;8.12;100.00;100389.06;10259195;28;20050;-74
2022/11/26 19:13:46;;;;;;;11.65;6.20;;;;;;;8.08;100.00;100390.34;10288988;28;20113;-73
2022/11/26 19:18:48;;;;;;;6.50;4.78;;;;;;;7.66;100.00;100327.44;10287682;28;20077;-73
2022/11/26 19:23:49;;;;;;;8.95;5.95;;;;;;;8.01;100.00;100396.22;10296195;28;20038;-73
2022/11/26 19:28:51;;;;;;;18.30;7.47;;;;;;;7.93;100.00;100393.50;10300138;28;20045;-73
2022/11/26 19:33:54;;;;;;;6.85;5.10;;;;;;;7.87;100.00;100393.28;10336276;28;20445;-73
2022/11/26 19:38:56;;;;;;;7.93;4.85;;;;;;;7.34;100.00;100314.69;10335137;28;20494;-73
2022/11/26 19:44:04;;;;;;;7.05;4.97;;;;;;;7.75;100.00;100397.94;10318387;28;20050;-73
2022/11/26 19:49:06;;;;;;;7.53;4.97;;;;;;;7.69;100.00;100407.28;10334995;28;20069;-73
2022/11/26 19:54:07;;;;;;;9.52;4.95;;;;;;;7.39;100.00;100379.34;10335187;28;20473;-73
2022/11/26 19:59:08;;;;;;;15.75;5.60;;;;;;;7.43;100.00;100395.75;10334587;28;20080;-73
2022/11/26 20:04:18;;;;;;;13.85;5.60;;;;;;;6.96;100.00;100335.84;10333435;28;20042;-72
2022/11/26 20:09:19;;;;;;;8.52;5.75;;;;;;;7.46;100.00;100417.41;10332636;28;20042;-73
2022/11/26 20:14:20;;;;;;;14.10;5.70;;;;;;;7.36;100.00;100398.16;10333680;28;20124;-73
2022/11/26 20:19:20;;;;;;;27.58;6.07;;;;;;;7.45;100.00;100415.78;10333102;28;20046;-73
2022/11/26 20:24:21;;;;;;;21.98;5.40;;;;;;;7.47;100.00;100428.81;10332916;28;20034;-73
2022/11/26 20:29:22;;;;;;;12.00;5.28;;;;;;;6.85;100.00;100341.34;10331935;28;20494;-73
2022/11/26 20:34:28;;;;;;;11.35;5.15;;;;;;;7.09;100.00;100391.84;10332752;28;20394;-73
2022/11/26 20:39:29;;;;;;;23.13;5.10;;;;;;;7.07;100.00;100395.59;10333016;28;20057;-73
2022/11/26 20:44:30;;;;;;;17.38;5.25;;;;;;;6.71;100.00;100358.47;10332158;28;20506;-73
2022/11/26 20:49:31;;;;;;;8.38;4.13;;;;;;;7.16;100.00;100444.94;10332692;28;20058;-73
2022/11/26 20:54:32;;;;;;;14.15;4.80;;;;;;;6.33;100.00;100310.03;10332271;28;20046;-73
2022/11/26 20:59:33;;;;;;;10.98;4.40;;;;;;;7.03;100.00;100436.47;10332556;28;20391;-73
2022/11/26 21:04:34;;;;;;;6.35;3.80;;;;;;;7.09;100.00;100438.56;10332729;28;20137;-73
2022/11/26 21:09:35;;;;;;;6.95;3.53;;;;;;;6.81;100.00;100406.78;10332994;28;20050;-73
2022/11/26 21:14:36;;;;;;;6.72;3.17;;;;;;;6.41;100.00;100348.94;10331137;28;20038;-73
2022/11/26 21:19:36;;;;;;;5.72;2.40;;;;;;;6.50;100.00;100361.28;10331945;28;20078;-73
2022/11/26 21:24:37;;;;;;;7.05;2.90;;;;;;;6.90;100.00;100431.50;10330878;28;20070;-73
2022/11/26 21:29:38;;;;;;;4.65;2.50;;;;;;;6.82;100.00;100420.81;10332050;28;20050;-73
2022/11/26 21:34:39;;;;;;;4.20;2.42;;;;;;;6.86;100.00;100420.41;10331676;28;20034;-73
2022/11/26 21:39:40;;;;;;;5.30;2.05;;;;;;;6.65;100.00;100393.34;10349333;28;20077;-73
2022/11/26 21:44:41;;;;;;;2.92;1.70;;;;;;;6.55;100.00;100360.84;10339018;28;20072;-73
2022/11/26 21:49:42;;;;;;;3.20;1.45;;;;;;;7.17;100.00;100462.44;10339897;28;20132;-73
2022/11/26 21:54:42;;;;;;;2.85;1.40;;;;;;;7.19;100.00;100468.44;10338538;28;20107;-73
2022/11/26 21:59:43;;;;;;;2.20;1.23;;;;;;;6.57;100.00;100366.81;10339033;28;20046;-73
2022/11/26 22:04:44;;;;;;;2.28;1.38;;;;;;;7.22;100.00;100478.72;10339479;28;20049;-73
2022/11/26 22:09:45;;;;;;;4.82;1.40;;;;;;;7.16;100.00;100476.63;10337407;28;20060;-74
2022/11/26 22:14:46;;;;;;;5.03;1.70;;;;;;;6.71;100.00;100391.94;10353030;28;20039;-73
2022/11/26 22:19:46;;;;;;;3.38;1.05;;;;;;;6.94;100.00;100432.91;10352862;28;20053;-73
2022/11/26 22:24:48;;;;;;;3.13;1.30;;;;;;;6.70;100.00;100393.75;10337533;28;20053;-73
2022/11/26 22:29:48;;;;;;;2.78;1.40;;;;;;;7.23;100.00;100471.59;10338499;28;20375;-73
2022/11/26 22:34:49;;;;;;;2.10;1.13;;;;;;;7.35;100.00;100480.19;10337460;28;20042;-73
2022/11/26 22:39:50;;;;;;;4.63;1.30;;;;;;;7.05;100.00;100431.88;10337418;28;20116;-73
2022/11/26 22:44:51;;;;;;;2.35;1.10;;;;;;;7.21;100.00;100468.25;10337230;28;20030;-73
2022/11/26 22:49:52;;;;;;;1.80;0.90;;;;;;;7.13;100.00;100453.16;10336837;28;20494;-73
2022/11/26 22:54:53;;;;;;;1.73;1.00;;;;;;;7.17;100.00;100467.72;10336913;28;20046;-73
2022/11/26 22:59:53;;;;;;;2.22;1.00;;;;;;;7.42;100.00;100499.78;10336646;28;20069;-73
2022/11/26 23:04:54;;;;;;;2.60;0.88;;;;;;;7.22;100.00;100475.25;10337032;28;20030;-73
2022/11/26 23:09:55;;;;;;;4.00;1.15;;;;;;;7.29;100.00;100492.16;10350873;28;20043;-73